sensor_id;sensor_type;location;lat;lon;timestamp;pressure;altitude;pressure_sealevel;temperature
79756;BMP280;69239;50.678;12.280;2023-08-21T00:01:52;98217.53;;;23.06
79756;BMP280;69239;50.678;12.280;2023-08-21T00:04:17;98226.34;;;23.06
79756;BMP280;69239;50.678;12.280;2023-08-21T00:06:43;98220.19;;;22.99
79756;BMP280;69239;50.678;12.280;2023-08-21T00:09:08;98225.56;;;22.99
79756;BMP280;69239;50.678;12.280;2023-08-21T00:11:34;98223.22;;;22.90
79756;BMP280;69239;50.678;12.280;2023-08-21T00:13:59;98226.28;;;22.89
79756;BMP280;69239;50.678;12.280;2023-08-21T00:16:25;98224.75;;;22.88
79756;BMP280;69239;50.678;12.280;2023-08-21T00:18:52;98230.53;;;22.86
79756;BMP280;69239;50.678;12.280;2023-08-21T00:21:18;98226.63;;;22.84
79756;BMP280;69239;50.678;12.280;2023-08-21T00:23:43;98219.75;;;22.79
79756;BMP280;69239;50.678;12.280;2023-08-21T00:26:09;98210.50;;;22.76
79756;BMP280;69239;50.678;12.280;2023-08-21T00:28:34;98209.72;;;22.76
79756;BMP280;69239;50.678;12.280;2023-08-21T00:31:03;98217.78;;;22.72
79756;BMP280;69239;50.678;12.280;2023-08-21T00:33:30;98216.63;;;22.66
79756;BMP280;69239;50.678;12.280;2023-08-21T00:35:55;98210.44;;;22.59
79756;BMP280;69239;50.678;12.280;2023-08-21T00:38:21;98209.25;;;22.53
79756;BMP280;69239;50.678;12.280;2023-08-21T00:40:46;98199.28;;;22.50
79756;BMP280;69239;50.678;12.280;2023-08-21T00:43:12;98198.09;;;22.47
79756;BMP280;69239;50.678;12.280;2023-08-21T00:45:38;98197.72;;;22.45
79756;BMP280;69239;50.678;12.280;2023-08-21T00:48:07;98209.97;;;22.46
79756;BMP280;69239;50.678;12.280;2023-08-21T00:50:32;98195.00;;;22.42
79756;BMP280;69239;50.678;12.280;2023-08-21T00:52:57;98194.63;;;22.39
79756;BMP280;69239;50.678;12.280;2023-08-21T00:55:23;98192.72;;;22.36
79756;BMP280;69239;50.678;12.280;2023-08-21T00:57:49;98198.81;;;22.37
79756;BMP280;69239;50.678;12.280;2023-08-21T01:00:15;98198.03;;;22.33
79756;BMP280;69239;50.678;12.280;2023-08-21T01:02:40;98205.69;;;22.34
79756;BMP280;69239;50.678;12.280;2023-08-21T01:05:07;98205.31;;;22.29
79756;BMP280;69239;50.678;12.280;2023-08-21T01:07:37;98196.06;;;22.26
79756;BMP280;69239;50.678;12.280;2023-08-21T01:10:11;98209.50;;;22.30
79756;BMP280;69239;50.678;12.280;2023-08-21T01:13:02;98203.34;;;22.26
79756;BMP280;69239;50.678;12.280;2023-08-21T01:15:31;98192.56;;;22.19
79756;BMP280;69239;50.678;12.280;2023-08-21T01:17:57;98205.63;;;22.20
79756;BMP280;69239;50.678;12.280;2023-08-21T01:20:23;98214.03;;;22.19
79756;BMP280;69239;50.678;12.280;2023-08-21T01:22:49;98208.66;;;22.19
79756;BMP280;69239;50.678;12.280;2023-08-21T01:25:15;98216.34;;;22.17
79756;BMP280;69239;50.678;12.280;2023-08-21T01:27:46;98204.78;;;22.09
79756;BMP280;69239;50.678;12.280;2023-08-21T01:30:13;98204.03;;;22.09
79756;BMP280;69239;50.678;12.280;2023-08-21T01:35:22;98200.13;;;22.06
79756;BMP280;69239;50.678;12.280;2023-08-21T01:37:48;98199.38;;;22.02
79756;BMP280;69239;50.678;12.280;2023-08-21T01:40:21;98197.06;;;22.00
79756;BMP280;69239;50.678;12.280;2023-08-21T01:42:46;98199.31;;;21.98
79756;BMP280;69239;50.678;12.280;2023-08-21T01:45:11;98206.22;;;21.96
79756;BMP280;69239;50.678;12.280;2023-08-21T01:47:37;98199.28;;;21.91
79756;BMP280;69239;50.678;12.280;2023-08-21T01:50:03;98193.47;;;21.82
79756;BMP280;69239;50.678;12.280;2023-08-21T01:52:28;98205.34;;;21.81
79756;BMP280;69239;50.678;12.280;2023-08-21T01:54:53;98201.44;;;21.75
79756;BMP280;69239;50.678;12.280;2023-08-21T01:57:19;98196.03;;;21.68
79756;BMP280;69239;50.678;12.280;2023-08-21T01:59:44;98198.25;;;21.62
79756;BMP280;69239;50.678;12.280;2023-08-21T02:02:10;98189.81;;;21.57
79756;BMP280;69239;50.678;12.280;2023-08-21T02:04:35;98199.75;;;21.56
79756;BMP280;69239;50.678;12.280;2023-08-21T02:07:00;98203.56;;;21.52
79756;BMP280;69239;50.678;12.280;2023-08-21T02:09:26;98205.88;;;21.53
79756;BMP280;69239;50.678;12.280;2023-08-21T02:11:51;98203.56;;;21.52
79756;BMP280;69239;50.678;12.280;2023-08-21T02:14:16;98200.47;;;21.50
79756;BMP280;69239;50.678;12.280;2023-08-21T02:16:42;98205.03;;;21.46
79756;BMP280;69239;50.678;12.280;2023-08-21T02:19:07;98200.38;;;21.43
79756;BMP280;69239;50.678;12.280;2023-08-21T02:21:34;98212.63;;;21.44
79756;BMP280;69239;50.678;12.280;2023-08-21T02:23:59;98204.94;;;21.39
79756;BMP280;69239;50.678;12.280;2023-08-21T02:26:25;98206.09;;;21.38
79756;BMP280;69239;50.678;12.280;2023-08-21T02:28:50;98209.16;;;21.40
79756;BMP280;69239;50.678;12.280;2023-08-21T02:31:15;98211.78;;;21.36
79756;BMP280;69239;50.678;12.280;2023-08-21T02:33:41;98200.25;;;21.29
79756;BMP280;69239;50.678;12.280;2023-08-21T02:36:06;98198.69;;;21.27
79756;BMP280;69239;50.678;12.280;2023-08-21T02:38:32;98210.97;;;21.29
79756;BMP280;69239;50.678;12.280;2023-08-21T02:40:58;98197.50;;;21.21
79756;BMP280;69239;50.678;12.280;2023-08-21T02:43:23;98194.81;;;21.21
79756;BMP280;69239;50.678;12.280;2023-08-21T02:45:48;98205.53;;;21.21
79756;BMP280;69239;50.678;12.280;2023-08-21T02:48:14;98205.53;;;21.21
79756;BMP280;69239;50.678;12.280;2023-08-21T02:50:39;98197.41;;;21.14
79756;BMP280;69239;50.678;12.280;2023-08-21T02:53:06;98200.06;;;21.14
79756;BMP280;69239;50.678;12.280;2023-08-21T02:55:32;98203.16;;;21.13
79756;BMP280;69239;50.678;12.280;2023-08-21T02:57:57;98202.38;;;21.12
79756;BMP280;69239;50.678;12.280;2023-08-21T03:00:23;98204.22;;;21.08
79756;BMP280;69239;50.678;12.280;2023-08-21T03:02:49;98198.84;;;21.05
79756;BMP280;69239;50.678;12.280;2023-08-21T03:05:15;98215.34;;;21.10
79756;BMP280;69239;50.678;12.280;2023-08-21T03:07:40;98213.00;;;21.05
79756;BMP280;69239;50.678;12.280;2023-08-21T03:10:07;98211.09;;;21.06
79756;BMP280;69239;50.678;12.280;2023-08-21T03:12:33;98205.28;;;21.00
79756;BMP280;69239;50.678;12.280;2023-08-21T03:14:58;98213.72;;;21.02
79756;BMP280;69239;50.678;12.280;2023-08-21T03:17:24;98204.81;;;20.95
79756;BMP280;69239;50.678;12.280;2023-08-21T03:19:49;98202.13;;;20.91
79756;BMP280;69239;50.678;12.280;2023-08-21T03:22:15;98211.28;;;20.90
79756;BMP280;69239;50.678;12.280;2023-08-21T03:24:40;98205.09;;;20.86
79756;BMP280;69239;50.678;12.280;2023-08-21T03:27:06;98206.22;;;20.81
79756;BMP280;69239;50.678;12.280;2023-08-21T03:29:31;98203.03;;;20.72
79756;BMP280;69239;50.678;12.280;2023-08-21T03:31:57;98211.13;;;20.76
79756;BMP280;69239;50.678;12.280;2023-08-21T03:34:23;98206.38;;;20.66
79756;BMP280;69239;50.678;12.280;2023-08-21T03:36:48;98211.72;;;20.66
79756;BMP280;69239;50.678;12.280;2023-08-21T03:39:14;98210.94;;;20.62
79756;BMP280;69239;50.678;12.280;2023-08-21T03:41:39;98217.09;;;20.66
79756;BMP280;69239;50.678;12.280;2023-08-21T03:44:05;98215.91;;;20.63
79756;BMP280;69239;50.678;12.280;2023-08-21T03:46:30;98206.28;;;20.59
79756;BMP280;69239;50.678;12.280;2023-08-21T03:48:56;98207.72;;;20.52
79756;BMP280;69239;50.678;12.280;2023-08-21T03:51:21;98210.41;;;20.52
79756;BMP280;69239;50.678;12.280;2023-08-21T03:53:47;98209.59;;;20.48
79756;BMP280;69239;50.678;12.280;2023-08-21T03:56:12;98208.44;;;20.46
79756;BMP280;69239;50.678;12.280;2023-08-21T03:58:37;98209.50;;;20.41
79756;BMP280;69239;50.678;12.280;2023-08-21T04:01:03;98214.50;;;20.43
79756;BMP280;69239;50.678;12.280;2023-08-21T04:03:29;98222.88;;;20.41
79756;BMP280;69239;50.678;12.280;2023-08-21T04:05:54;98212.09;;;20.34
79756;BMP280;69239;50.678;12.280;2023-08-21T04:08:21;98216.66;;;20.34
79756;BMP280;69239;50.678;12.280;2023-08-21T04:10:47;98215.13;;;20.33
79756;BMP280;69239;50.678;12.280;2023-08-21T04:13:12;98223.91;;;20.33
79756;BMP280;69239;50.678;12.280;2023-08-21T04:15:37;98222.69;;;20.31
79756;BMP280;69239;50.678;12.280;2023-08-21T04:18:03;98214.28;;;20.29
79756;BMP280;69239;50.678;12.280;2023-08-21T04:20:29;98218.84;;;20.28
79756;BMP280;69239;50.678;12.280;2023-08-21T04:22:54;98234.91;;;20.28
79756;BMP280;69239;50.678;12.280;2023-08-21T04:25:20;98222.56;;;20.20
79756;BMP280;69239;50.678;12.280;2023-08-21T04:27:45;98224.09;;;20.21
79756;BMP280;69239;50.678;12.280;2023-08-21T04:30:11;98224.81;;;20.18
79756;BMP280;69239;50.678;12.280;2023-08-21T04:32:36;98232.50;;;20.23
79756;BMP280;69239;50.678;12.280;2023-08-21T04:35:02;98234.28;;;20.38
79756;BMP280;69239;50.678;12.280;2023-08-21T04:37:27;98235.22;;;20.49
79756;BMP280;69239;50.678;12.280;2023-08-21T04:39:53;98233.88;;;20.63
79756;BMP280;69239;50.678;12.280;2023-08-21T04:42:19;98233.97;;;20.70
79756;BMP280;69239;50.678;12.280;2023-08-21T04:44:45;98234.06;;;20.77
79756;BMP280;69239;50.678;12.280;2023-08-21T04:47:26;98239.13;;;20.85
79756;BMP280;69239;50.678;12.280;2023-08-21T04:49:53;98238.06;;;20.90
79756;BMP280;69239;50.678;12.280;2023-08-21T04:52:22;98231.56;;;20.91
79756;BMP280;69239;50.678;12.280;2023-08-21T04:54:48;98235.94;;;21.03
79756;BMP280;69239;50.678;12.280;2023-08-21T04:57:15;98235.28;;;21.13
79756;BMP280;69239;50.678;12.280;2023-08-21T04:59:40;98234.59;;;21.19
79756;BMP280;69239;50.678;12.280;2023-08-21T05:02:06;98230.75;;;21.17
79756;BMP280;69239;50.678;12.280;2023-08-21T05:04:33;98238.31;;;21.11
79756;BMP280;69239;50.678;12.280;2023-08-21T05:07:03;98239.88;;;21.12
79756;BMP280;69239;50.678;12.280;2023-08-21T05:09:30;98229.47;;;21.07
79756;BMP280;69239;50.678;12.280;2023-08-21T05:11:58;98255.09;;;21.08
79756;BMP280;69239;50.678;12.280;2023-08-21T05:14:23;98254.38;;;21.11
79756;BMP280;69239;50.678;12.280;2023-08-21T05:16:49;98258.63;;;21.12
79756;BMP280;69239;50.678;12.280;2023-08-21T05:19:15;98247.59;;;21.17
79756;BMP280;69239;50.678;12.280;2023-08-21T05:21:41;98249.16;;;21.22
79756;BMP280;69239;50.678;12.280;2023-08-21T05:24:07;98248.13;;;21.30
79756;BMP280;69239;50.678;12.280;2023-08-21T05:26:34;98254.34;;;21.41
79756;BMP280;69239;50.678;12.280;2023-08-21T05:29:00;98244.72;;;21.37
79756;BMP280;69239;50.678;12.280;2023-08-21T05:31:26;98253.94;;;21.39
79756;BMP280;69239;50.678;12.280;2023-08-21T05:33:51;98257.84;;;21.45
79756;BMP280;69239;50.678;12.280;2023-08-21T05:36:17;98248.28;;;21.48
79756;BMP280;69239;50.678;12.280;2023-08-21T05:38:42;98255.56;;;21.51
79756;BMP280;69239;50.678;12.280;2023-08-21T05:41:08;98247.53;;;21.51
79756;BMP280;69239;50.678;12.280;2023-08-21T05:43:35;98249.97;;;21.63
79756;BMP280;69239;50.678;12.280;2023-08-21T05:46:01;98255.84;;;21.76
79756;BMP280;69239;50.678;12.280;2023-08-21T05:48:26;98261.66;;;21.81
79756;BMP280;69239;50.678;12.280;2023-08-21T05:50:52;98250.53;;;21.83
79756;BMP280;69239;50.678;12.280;2023-08-21T05:53:18;98253.66;;;21.92
79756;BMP280;69239;50.678;12.280;2023-08-21T05:55:54;98244.59;;;22.04
79756;BMP280;69239;50.678;12.280;2023-08-21T05:58:19;98256.91;;;22.12
79756;BMP280;69239;50.678;12.280;2023-08-21T06:00:46;98252.41;;;22.23
79756;BMP280;69239;50.678;12.280;2023-08-21T06:03:13;98251.25;;;22.27
79756;BMP280;69239;50.678;12.280;2023-08-21T06:05:38;98258.22;;;22.32
79756;BMP280;69239;50.678;12.280;2023-08-21T06:08:04;98240.56;;;22.31
79756;BMP280;69239;50.678;12.280;2023-08-21T06:10:31;98258.28;;;22.46
79756;BMP280;69239;50.678;12.280;2023-08-21T06:12:57;98252.63;;;22.58
79756;BMP280;69239;50.678;12.280;2023-08-21T06:15:22;98253.78;;;22.68
79756;BMP280;69239;50.678;12.280;2023-08-21T06:17:51;98255.03;;;22.77
79756;BMP280;69239;50.678;12.280;2023-08-21T06:20:16;98253.50;;;22.91
79756;BMP280;69239;50.678;12.280;2023-08-21T06:22:41;98262.03;;;23.00
79756;BMP280;69239;50.678;12.280;2023-08-21T06:25:08;98260.53;;;23.13
79756;BMP280;69239;50.678;12.280;2023-08-21T06:27:35;98263.63;;;23.22
79756;BMP280;69239;50.678;12.280;2023-08-21T06:30:00;98264.81;;;23.35
79756;BMP280;69239;50.678;12.280;2023-08-21T06:32:27;98263.69;;;23.43
79756;BMP280;69239;50.678;12.280;2023-08-21T06:34:52;98249.88;;;23.56
79756;BMP280;69239;50.678;12.280;2023-08-21T06:37:18;98264.50;;;23.83
79756;BMP280;69239;50.678;12.280;2023-08-21T06:39:49;98266.00;;;24.19
79756;BMP280;69239;50.678;12.280;2023-08-21T06:42:21;98264.41;;;24.61
79756;BMP280;69239;50.678;12.280;2023-08-21T06:44:51;98263.13;;;24.90
79756;BMP280;69239;50.678;12.280;2023-08-21T06:47:23;98274.84;;;25.28
79756;BMP280;69239;50.678;12.280;2023-08-21T06:49:58;98274.22;;;25.62
79756;BMP280;69239;50.678;12.280;2023-08-21T06:52:26;98266.28;;;25.92
79756;BMP280;69239;50.678;12.280;2023-08-21T06:54:51;98264.81;;;26.25
79756;BMP280;69239;50.678;12.280;2023-08-21T06:57:17;98262.13;;;26.59
79756;BMP280;69239;50.678;12.280;2023-08-21T07:00:15;98274.75;;;26.96
79756;BMP280;69239;50.678;12.280;2023-08-21T07:02:41;98260.91;;;27.21
79756;BMP280;69239;50.678;12.280;2023-08-21T07:05:07;98261.00;;;27.40
79756;BMP280;69239;50.678;12.280;2023-08-21T07:07:43;98262.59;;;27.61
79756;BMP280;69239;50.678;12.280;2023-08-21T07:10:09;98269.94;;;27.84
79756;BMP280;69239;50.678;12.280;2023-08-21T07:12:35;98273.84;;;28.03
79756;BMP280;69239;50.678;12.280;2023-08-21T07:15:00;98277.66;;;28.05
79756;BMP280;69239;50.678;12.280;2023-08-21T07:17:32;98288.38;;;28.12
79756;BMP280;69239;50.678;12.280;2023-08-21T07:20:02;98282.13;;;28.15
79756;BMP280;69239;50.678;12.280;2023-08-21T07:22:29;98281.94;;;28.26
79756;BMP280;69239;50.678;12.280;2023-08-21T07:24:54;98277.28;;;28.26
79756;BMP280;69239;50.678;12.280;2023-08-21T07:27:20;98282.59;;;28.30
79756;BMP280;69239;50.678;12.280;2023-08-21T07:29:54;98289.84;;;28.36
79756;BMP280;69239;50.678;12.280;2023-08-21T07:32:22;98293.97;;;28.45
79756;BMP280;69239;50.678;12.280;2023-08-21T07:34:52;98290.00;;;28.49
79756;BMP280;69239;50.678;12.280;2023-08-21T07:37:18;98290.75;;;28.50
79756;BMP280;69239;50.678;12.280;2023-08-21T07:39:44;98299.94;;;28.56
79756;BMP280;69239;50.678;12.280;2023-08-21T07:42:13;98297.28;;;28.72
79756;BMP280;69239;50.678;12.280;2023-08-21T07:44:39;98301.22;;;28.87
79756;BMP280;69239;50.678;12.280;2023-08-21T07:47:05;98299.22;;;29.07
79756;BMP280;69239;50.678;12.280;2023-08-21T07:49:31;98312.13;;;29.36
79756;BMP280;69239;50.678;12.280;2023-08-21T07:51:57;98311.19;;;29.58
79756;BMP280;69239;50.678;12.280;2023-08-21T07:54:25;98306.31;;;29.82
79756;BMP280;69239;50.678;12.280;2023-08-21T07:57:14;98306.25;;;30.15
79756;BMP280;69239;50.678;12.280;2023-08-21T07:59:43;98308.91;;;30.31
79756;BMP280;69239;50.678;12.280;2023-08-21T08:02:08;98287.47;;;30.33
79756;BMP280;69239;50.678;12.280;2023-08-21T08:04:33;98297.31;;;30.55
79756;BMP280;69239;50.678;12.280;2023-08-21T08:06:59;98315.00;;;30.76
79756;BMP280;69239;50.678;12.280;2023-08-21T08:09:24;98312.69;;;30.87
79756;BMP280;69239;50.678;12.280;2023-08-21T08:11:51;98305.53;;;30.93
79756;BMP280;69239;50.678;12.280;2023-08-21T08:14:19;98311.47;;;31.14
79756;BMP280;69239;50.678;12.280;2023-08-21T08:16:45;98305.16;;;31.29
79756;BMP280;69239;50.678;12.280;2023-08-21T08:19:10;98298.88;;;31.32
79756;BMP280;69239;50.678;12.280;2023-08-21T08:21:39;98277.16;;;31.41
79756;BMP280;69239;50.678;12.280;2023-08-21T08:24:04;98276.25;;;31.57
79756;BMP280;69239;50.678;12.280;2023-08-21T08:26:30;98278.16;;;31.69
79756;BMP280;69239;50.678;12.280;2023-08-21T08:28:55;98295.56;;;31.93
79756;BMP280;69239;50.678;12.280;2023-08-21T08:31:27;98274.53;;;31.94
79756;BMP280;69239;50.678;12.280;2023-08-21T08:34:04;98269.00;;;31.98
79756;BMP280;69239;50.678;12.280;2023-08-21T08:36:31;98286.91;;;32.08
79756;BMP280;69239;50.678;12.280;2023-08-21T08:38:57;98289.56;;;32.20
79756;BMP280;69239;50.678;12.280;2023-08-21T08:41:47;98306.78;;;32.39
79756;BMP280;69239;50.678;12.280;2023-08-21T08:44:15;98287.69;;;32.39
79756;BMP280;69239;50.678;12.280;2023-08-21T08:46:42;98289.44;;;32.55
79756;BMP280;69239;50.678;12.280;2023-08-21T08:49:08;98287.75;;;32.57
79756;BMP280;69239;50.678;12.280;2023-08-21T08:51:39;98289.38;;;32.67
79756;BMP280;69239;50.678;12.280;2023-08-21T08:54:11;98288.25;;;32.96
79756;BMP280;69239;50.678;12.280;2023-08-21T08:56:40;98292.53;;;33.15
79756;BMP280;69239;50.678;12.280;2023-08-21T08:59:11;98287.09;;;33.24
79756;BMP280;69239;50.678;12.280;2023-08-21T09:01:52;98285.56;;;33.32
79756;BMP280;69239;50.678;12.280;2023-08-21T09:04:17;98305.16;;;33.58
79756;BMP280;69239;50.678;12.280;2023-08-21T09:06:46;98288.91;;;33.54
79756;BMP280;69239;50.678;12.280;2023-08-21T09:09:12;98285.28;;;33.57
79756;BMP280;69239;50.678;12.280;2023-08-21T09:11:43;98289.22;;;33.65
79756;BMP280;69239;50.678;12.280;2023-08-21T09:14:10;98307.41;;;33.96
79756;BMP280;69239;50.678;12.280;2023-08-21T09:16:36;98284.94;;;33.92
79756;BMP280;69239;50.678;12.280;2023-08-21T09:19:07;98290.13;;;33.99
79756;BMP280;69239;50.678;12.280;2023-08-21T09:21:44;98289.47;;;33.95
79756;BMP280;69239;50.678;12.280;2023-08-21T09:24:13;98281.31;;;33.76
79756;BMP280;69239;50.678;12.280;2023-08-21T09:26:51;98298.31;;;33.99
79756;BMP280;69239;50.678;12.280;2023-08-21T09:29:20;98288.59;;;33.98
79756;BMP280;69239;50.678;12.280;2023-08-21T09:31:58;98299.47;;;34.16
79756;BMP280;69239;50.678;12.280;2023-08-21T09:34:35;98269.84;;;34.14
79756;BMP280;69239;50.678;12.280;2023-08-21T09:37:05;98296.06;;;34.39
79756;BMP280;69239;50.678;12.280;2023-08-21T09:39:35;98288.31;;;34.38
79756;BMP280;69239;50.678;12.280;2023-08-21T09:42:07;98282.38;;;34.39
79756;BMP280;69239;50.678;12.280;2023-08-21T09:44:39;98277.56;;;34.34
79756;BMP280;69239;50.678;12.280;2023-08-21T09:47:22;98282.47;;;34.21
79756;BMP280;69239;50.678;12.280;2023-08-21T09:50:00;98279.75;;;34.03
79756;BMP280;69239;50.678;12.280;2023-08-21T09:52:36;98274.13;;;33.97
79756;BMP280;69239;50.678;12.280;2023-08-21T09:55:03;98282.53;;;33.94
79756;BMP280;69239;50.678;12.280;2023-08-21T09:57:36;98273.41;;;33.88
79756;BMP280;69239;50.678;12.280;2023-08-21T10:00:40;98270.63;;;33.97
79756;BMP280;69239;50.678;12.280;2023-08-21T10:03:19;98281.84;;;34.26
79756;BMP280;69239;50.678;12.280;2023-08-21T10:05:51;98275.63;;;34.26
79756;BMP280;69239;50.678;12.280;2023-08-21T10:08:33;98267.16;;;34.05
79756;BMP280;69239;50.678;12.280;2023-08-21T10:11:11;98282.06;;;34.37
79756;BMP280;69239;50.678;12.280;2023-08-21T10:13:39;98264.44;;;34.47
79756;BMP280;69239;50.678;12.280;2023-08-21T10:16:05;98254.66;;;34.55
79756;BMP280;69239;50.678;12.280;2023-08-21T10:18:44;98248.28;;;34.49
79756;BMP280;69239;50.678;12.280;2023-08-21T10:21:19;98255.00;;;34.48
79756;BMP280;69239;50.678;12.280;2023-08-21T10:24:11;98235.34;;;34.17
79756;BMP280;69239;50.678;12.280;2023-08-21T10:27:14;98245.72;;;34.13
79756;BMP280;69239;50.678;12.280;2023-08-21T10:30:27;98267.31;;;34.44
79756;BMP280;69239;50.678;12.280;2023-08-21T10:33:08;98238.84;;;34.27
79756;BMP280;69239;50.678;12.280;2023-08-21T10:35:53;98241.44;;;34.21
79756;BMP280;69239;50.678;12.280;2023-08-21T10:42:17;98269.03;;;34.65
79756;BMP280;69239;50.678;12.280;2023-08-21T10:48:39;98261.69;;;34.47
79756;BMP280;69239;50.678;12.280;2023-08-21T10:51:06;98261.56;;;34.42
79756;BMP280;69239;50.678;12.280;2023-08-21T10:53:33;98260.41;;;34.34
79756;BMP280;69239;50.678;12.280;2023-08-21T10:56:02;98259.34;;;34.22
79756;BMP280;69239;50.678;12.280;2023-08-21T10:58:28;98255.91;;;34.12
79756;BMP280;69239;50.678;12.280;2023-08-21T11:01:00;98262.25;;;34.09
79756;BMP280;69239;50.678;12.280;2023-08-21T11:03:25;98257.88;;;34.03
79756;BMP280;69239;50.678;12.280;2023-08-21T11:06:10;98255.59;;;34.10
79756;BMP280;69239;50.678;12.280;2023-08-21T11:08:36;98258.28;;;34.29
79756;BMP280;69239;50.678;12.280;2023-08-21T11:11:04;98257.53;;;34.52
79756;BMP280;69239;50.678;12.280;2023-08-21T11:13:30;98247.91;;;34.65
79756;BMP280;69239;50.678;12.280;2023-08-21T11:16:04;98253.09;;;34.63
79756;BMP280;69239;50.678;12.280;2023-08-21T11:18:33;98247.75;;;34.69
79756;BMP280;69239;50.678;12.280;2023-08-21T11:21:10;98246.47;;;34.79
79756;BMP280;69239;50.678;12.280;2023-08-21T11:23:40;98255.59;;;35.00
79756;BMP280;69239;50.678;12.280;2023-08-21T11:26:06;98243.78;;;35.17
79756;BMP280;69239;50.678;12.280;2023-08-21T11:28:35;98239.09;;;35.33
79756;BMP280;69239;50.678;12.280;2023-08-21T11:31:00;98248.72;;;35.57
79756;BMP280;69239;50.678;12.280;2023-08-21T11:33:26;98243.25;;;35.72
79756;BMP280;69239;50.678;12.280;2023-08-21T11:35:52;98240.16;;;35.64
79756;BMP280;69239;50.678;12.280;2023-08-21T11:38:23;98245.72;;;35.55
79756;BMP280;69239;50.678;12.280;2023-08-21T11:40:55;98247.16;;;35.65
79756;BMP280;69239;50.678;12.280;2023-08-21T11:43:22;98248.34;;;35.79
79756;BMP280;69239;50.678;12.280;2023-08-21T11:45:48;98234.59;;;35.74
79756;BMP280;69239;50.678;12.280;2023-08-21T11:48:14;98236.84;;;35.75
79756;BMP280;69239;50.678;12.280;2023-08-21T11:50:40;98230.59;;;35.75
79756;BMP280;69239;50.678;12.280;2023-08-21T11:53:05;98229.66;;;35.78
79756;BMP280;69239;50.678;12.280;2023-08-21T11:55:34;98226.53;;;35.70
79756;BMP280;69239;50.678;12.280;2023-08-21T11:58:01;98230.03;;;35.70
79756;BMP280;69239;50.678;12.280;2023-08-21T12:00:28;98228.50;;;35.69
79756;BMP280;69239;50.678;12.280;2023-08-21T12:03:00;98227.47;;;35.82
79756;BMP280;69239;50.678;12.280;2023-08-21T12:05:28;98227.00;;;35.98
79756;BMP280;69239;50.678;12.280;2023-08-21T12:07:54;98232.88;;;36.26
79756;BMP280;69239;50.678;12.280;2023-08-21T12:10:24;98232.09;;;36.40
79756;BMP280;69239;50.678;12.280;2023-08-21T12:12:49;98237.28;;;36.52
79756;BMP280;69239;50.678;12.280;2023-08-21T12:15:15;98219.78;;;36.50
79756;BMP280;69239;50.678;12.280;2023-08-21T12:17:40;98231.28;;;36.54
79756;BMP280;69239;50.678;12.280;2023-08-21T12:20:06;98230.97;;;36.66
79756;BMP280;69239;50.678;12.280;2023-08-21T12:22:37;98226.13;;;36.82
79756;BMP280;69239;50.678;12.280;2023-08-21T12:25:02;98230.28;;;36.92
79756;BMP280;69239;50.678;12.280;2023-08-21T12:27:29;98226.41;;;37.04
79756;BMP280;69239;50.678;12.280;2023-08-21T12:29:54;98223.28;;;37.16
79756;BMP280;69239;50.678;12.280;2023-08-21T12:32:19;98215.16;;;37.28
79756;BMP280;69239;50.678;12.280;2023-08-21T12:34:45;98212.09;;;37.20
79756;BMP280;69239;50.678;12.280;2023-08-21T12:37:10;98208.75;;;37.10
79756;BMP280;69239;50.678;12.280;2023-08-21T12:39:35;98211.38;;;36.79
79756;BMP280;69239;50.678;12.280;2023-08-21T12:42:01;98209.59;;;36.56
79756;BMP280;69239;50.678;12.280;2023-08-21T12:44:26;98212.53;;;36.32
79756;BMP280;69239;50.678;12.280;2023-08-21T12:46:51;98206.00;;;36.09
79756;BMP280;69239;50.678;12.280;2023-08-21T12:49:17;98220.34;;;36.19
79756;BMP280;69239;50.678;12.280;2023-08-21T12:51:42;98211.97;;;36.43
79756;BMP280;69239;50.678;12.280;2023-08-21T12:54:08;98218.47;;;36.65
79756;BMP280;69239;50.678;12.280;2023-08-21T12:56:34;98214.81;;;36.74
79756;BMP280;69239;50.678;12.280;2023-08-21T12:58:59;98217.09;;;36.76
79756;BMP280;69239;50.678;12.280;2023-08-21T13:01:25;98214.00;;;36.68
79756;BMP280;69239;50.678;12.280;2023-08-21T13:03:51;98215.47;;;36.63
79756;BMP280;69239;50.678;12.280;2023-08-21T13:06:16;98218.88;;;36.58
79756;BMP280;69239;50.678;12.280;2023-08-21T13:08:42;98218.31;;;36.54
79756;BMP280;69239;50.678;12.280;2023-08-21T13:11:07;98218.31;;;36.54
79756;BMP280;69239;50.678;12.280;2023-08-21T13:13:33;98212.47;;;36.47
79756;BMP280;69239;50.678;12.280;2023-08-21T13:15:59;98214.13;;;36.39
79756;BMP280;69239;50.678;12.280;2023-08-21T13:18:25;98215.78;;;36.31
79756;BMP280;69239;50.678;12.280;2023-08-21T13:20:50;98212.75;;;36.14
79756;BMP280;69239;50.678;12.280;2023-08-21T13:23:16;98209.59;;;36.01
79756;BMP280;69239;50.678;12.280;2023-08-21T13:25:41;98201.47;;;35.92
79756;BMP280;69239;50.678;12.280;2023-08-21T13:28:06;98203.94;;;35.90
79756;BMP280;69239;50.678;12.280;2023-08-21T13:30:32;98198.56;;;35.81
79756;BMP280;69239;50.678;12.280;2023-08-21T13:32:57;98198.47;;;35.75
79756;BMP280;69239;50.678;12.280;2023-08-21T13:35:23;98204.97;;;35.78
79756;BMP280;69239;50.678;12.280;2023-08-21T13:37:48;98202.72;;;35.76
79756;BMP280;69239;50.678;12.280;2023-08-21T13:40:13;98198.66;;;35.72
79756;BMP280;69239;50.678;12.280;2023-08-21T13:42:42;98194.78;;;35.63
79756;BMP280;69239;50.678;12.280;2023-08-21T13:45:15;98196.38;;;35.70
79756;BMP280;69239;50.678;12.280;2023-08-21T13:47:42;98189.88;;;35.67
79756;BMP280;69239;50.678;12.280;2023-08-21T13:50:08;98185.28;;;35.59
79756;BMP280;69239;50.678;12.280;2023-08-21T13:52:34;98179.56;;;35.62
79756;BMP280;69239;50.678;12.280;2023-08-21T13:55:01;98176.28;;;35.73
79756;BMP280;69239;50.678;12.280;2023-08-21T13:57:27;98170.09;;;35.93
79756;BMP280;69239;50.678;12.280;2023-08-21T13:59:52;98167.34;;;35.93
79756;BMP280;69239;50.678;12.280;2023-08-21T14:02:18;98162.25;;;35.86
79756;BMP280;69239;50.678;12.280;2023-08-21T14:04:45;98176.25;;;35.88
79756;BMP280;69239;50.678;12.280;2023-08-21T14:07:10;98164.59;;;35.93
79756;BMP280;69239;50.678;12.280;2023-08-21T14:09:37;98161.75;;;36.02
79756;BMP280;69239;50.678;12.280;2023-08-21T14:12:02;98163.81;;;36.07